Championnat du Nord Open

Compétition Départementale

DUNKERQUE

Du Samedi 21 Novembre 2015 au Dimanche 22 Novembre 2015

Bassin de 25m

100 Nage Libre Dames

Finale A

Nom Année Temps Pts Club Pays
1 NOGE Lisa 1996 0:59:56 1198 LILLE UC NATATION FRA
2 LEPERS Julia 2001 1:00:31 1174 DAUPHINS WATTRELOS FRA
3 COCHETEUX Emma 2001 1:00:82 1158 DUNKERQUE NATATION FRA
4 VEREECKE Céleste 2002 1:01:38 1141 US ST-ANDRÉ FRA
5 MERLEVEDE Louise 1999 1:02:61 1102 DUNKERQUE NATATION FRA
6 LAGNEAU Angélina 2000 1:02:87 1094 CN FOURMIES FRA
7 LEQUIEN Constance 2000 1:04:86 1034 ST-AMAND NAT PORTE DU HAINAUT FRA
8 DANDOIS Emma 1999 1:04:96 1031 MARCQ NATATION FRA

Finale B

Nom Année Temps Pts Club Pays
1 HAMDINI Ryma 2001 1:03:67 1070 LILLE MÉTROPOLE NATATION FRA
2 GADROUZ Lea 2002 1:03:83 1065 DUNKERQUE NATATION FRA
3 MAKOUALA Alizee 2001 1:04:00 1060 AVAN VILLENEUVE-D'ASCQ FRA
4 SOUBRIER Clara 1998 1:04:22 1053 LILLE MÉTROPOLE NATATION FRA
5 BERTHIER Laura 2000 1:04:41 1047 ST-AMAND NAT PORTE DU HAINAUT FRA
6 KACZOROWSKI Emma 1998 1:04:57 1043 US ST-ANDRÉ FRA
7 ANDRIEU Nathalie 2002 1:05:07 1028 DUNKERQUE NATATION FRA
8 DUPRE Julie 2001 1:05:08 1027 MARCQ NATATION FRA

Séries

Nom Année Temps Pts Club Pays
1 COCHETEUX Emma 2001 1:00:43 1171 DUNKERQUE NATATION FRA
2 NOGE Lisa 1996 1:00:57 1166 LILLE UC NATATION FRA
3 VEREECKE Céleste 2002 1:01:98 1122 US ST-ANDRÉ FRA
4 MERLEVEDE Louise 1999 1:02:01 1121 DUNKERQUE NATATION FRA
5 LEQUIEN Constance 2000 1:02:67 1100 ST-AMAND NAT PORTE DU HAINAUT FRA
6 LAGNEAU Angélina 2000 1:03:10 1087 CN FOURMIES FRA
7 DANDOIS Emma 1999 1:03:98 1060 MARCQ NATATION FRA
8 LEPERS Julia 2001 1:04:07 1058 DAUPHINS WATTRELOS FRA
9 MAKOUALA Alizee 2001 1:04:13 1056 AVAN VILLENEUVE-D'ASCQ FRA
10 HAMDINI Ryma 2001 1:04:37 1049 LILLE MÉTROPOLE NATATION FRA
11 SOUBRIER Clara 1998 1:04:50 1045 LILLE MÉTROPOLE NATATION FRA
12 KACZOROWSKI Emma 1998 1:04:65 1040 US ST-ANDRÉ FRA
13 ANDRIEU Nathalie 2002 1:04:69 1039 DUNKERQUE NATATION FRA
14 BERTHIER Laura 2000 1:04:71 1038 ST-AMAND NAT PORTE DU HAINAUT FRA
15 DUPRE Julie 2001 1:04:90 1033 MARCQ NATATION FRA
16 GADROUZ Lea 2002 1:05:01 1029 DUNKERQUE NATATION FRA
17 HOUZET Clarisse 2000 1:05:09 1027 LILLE MÉTROPOLE NATATION FRA
18 PLADYS Joanne 2001 1:05:57 1013 DUNKERQUE NATATION FRA
19 DUMONT Valentine 2000 1:05:66 1010 DUNKERQUE NATATION FRA
20 DUCROCQ Lisa 2001 1:05:89 1003 DUNKERQUE NATATION FRA
21 LAGAE Chloé 1996 1:06:11 997 CN CROIX FRA
22 DUBOIS Louise 1999 1:06:18 995 SECLIN NATATION FRA
23 DAMIE Josephine 1998 1:06:46 987 US ST-ANDRÉ FRA
24 DE WAELE Mathilde 2000 1:06:51 985 LILLE MÉTROPOLE NATATION FRA
25 MERLIER Jade 2001 1:06:55 984 DUNKERQUE NATATION FRA
26 VANDERSLUYS Léa 2002 1:06:56 984 DUNKERQUE NATATION FRA
27 DEPAUW Marinne 2001 1:06:64 981 ST-AMAND NAT PORTE DU HAINAUT FRA
28 JOUHANNEAU Charlotte 2001 1:07:02 970 DAUPHINS WATTRELOS FRA
29 BECAR Evangeline 2002 1:07:13 967 CN FOURMIES FRA
30 GODEFROID Céline 2000 1:07:20 965 US MAUBEUGE FRA
31 GIANNUZZO Ornella 2001 1:07:59 954 MARCQ NATATION FRA
32 DUCOULOMBIER Louise 1999 1:07:99 942 CN CROIX FRA
33 LIEBERT Meline 2002 1:08:30 934 CN FOURMIES FRA
34 KUSKUSI Yasmina 2002 1:08:58 926 AVAN VILLENEUVE-D'ASCQ FRA
35 BIKARD Jade 2000 1:08:64 924 LILLE UC NATATION FRA
36 MOTURY Juliette 2000 1:09:08 912 MARCQ NATATION FRA
37 MIOT Morgane 2001 1:09:21 908 US MAUBEUGE FRA
38 JEDRASIK Marie-Amélie 2001 1:09:28 906 CN FOURMIES FRA
39 BEAUVOIS Clara 2001 1:09:49 900 CN CAMBRAI FRA
40 DAVOINE Solene 2001 1:09:94 888 SQUALE TRITH-ST-LEGER FRA
41 JUBERT Lisa 2002 1:10:11 883 CN CAMBRAI FRA
42 PARMENTIER Lucie 2000 1:10:25 879 FNC DOUAI FRA
43 LESAGE Amelie 1999 1:10:65 868 SECLIN NATATION FRA
44 NOUCHET Alexandra 1998 1:10:83 863 DUNKERQUE NATATION FRA
45 LEFORT Gabrielle 2001 1:10:86 862 CN CAMBRAI FRA
46 ELACHACHI Imane 2002 1:10:96 860 US ST-ANDRÉ FRA
47 BOURGOIS Camille 1999 1:11:10 856 US ST-ANDRÉ FRA
48 GOBERT Eleonore 2000 1:11:12 855 DAUPHINS WATTRELOS FRA
49 OLIVIER Lily 2002 1:11:55 844 ST-AMAND NAT PORTE DU HAINAUT FRA
50 VANDEWALLE Lea 2002 1:11:73 839 CN CAMBRAI FRA
51 DELFOSSE Camille 2001 1:12:06 830 ST-AMAND NAT PORTE DU HAINAUT FRA
52 LEBORGNE Elise 2001 1:12:11 828 AVESNES NATATION FRA
53 LEROUGE Laurine 2002 1:12:15 827 CN CAMBRAI FRA
54 MAEGHT Zélie 2002 1:12:53 817 DUNKERQUE NATATION FRA
55 TAVERNIER Lola 2002 1:12:54 817 US ST-ANDRÉ FRA
56 AÏT GHERBI Karla 2002 1:12:69 813 AVAN VILLENEUVE-D'ASCQ FRA
57 PLOUCHART Heloise 2001 1:12:91 807 ST-AMAND NAT PORTE DU HAINAUT FRA
58 GRAY Manon 2002 1:13:68 787 MARCQ NATATION FRA
59 QUIRET Lisa 2001 1:13:93 780 RONCHIN OLYMPIQUE CLUB FRA
60 DORMEGNIE Elouen 2001 1:14:17 774 RONCHIN OLYMPIQUE CLUB FRA
61 CLOT Natacha 2001 1:14:17 774 US ST-ANDRÉ FRA
62 CARON Anaelle 2002 1:15:39 743 FNC DOUAI FRA
63 VANHILLE Estelle 2001 1:16:09 725 DUNKERQUE NATATION FRA
SAINT-AMAND NATATION PORTE DU HAINAUT